createdAt,value
2024-03-16T00:03:06.295Z,0.30
2024-03-16T00:07:09.843Z,0.50
2024-03-16T00:11:14.510Z,0.40
2024-03-16T00:15:18.101Z,0.40
2024-03-16T00:19:21.822Z,0.57
2024-03-16T00:23:25.392Z,0.40
2024-03-16T00:27:28.949Z,0.47
2024-03-16T00:31:32.734Z,0.30
2024-03-16T00:35:36.860Z,0.40
2024-03-16T00:39:41.400Z,0.50
2024-03-16T00:43:44.935Z,0.50
2024-03-16T00:47:48.520Z,0.40
2024-03-16T00:51:52.601Z,0.60
2024-03-16T00:55:56.381Z,0.50
2024-03-16T00:59:59.827Z,0.40
2024-03-16T01:04:03.847Z,0.30
2024-03-16T01:08:07.472Z,0.40
2024-03-16T01:12:11.329Z,0.40
2024-03-16T01:16:14.833Z,0.60
2024-03-16T01:20:18.634Z,0.40
2024-03-16T01:24:22.140Z,0.30
2024-03-16T01:28:25.666Z,0.40
2024-03-16T01:32:29.517Z,0.70
2024-03-16T01:36:33.483Z,0.50
2024-03-16T01:40:37.309Z,0.40
2024-03-16T01:44:42.016Z,0.40
2024-03-16T01:48:45.480Z,0.40
2024-03-16T01:52:49.322Z,0.40
2024-03-16T01:56:52.763Z,0.70
2024-03-16T02:00:56.666Z,0.60
2024-03-16T02:05:01.491Z,0.77
2024-03-16T02:09:05.092Z,0.57
2024-03-16T02:13:08.877Z,0.80
2024-03-16T02:17:12.444Z,0.80
2024-03-16T02:21:16.452Z,0.60
2024-03-16T02:25:20.533Z,0.60
2024-03-16T02:29:24.854Z,0.60
2024-03-16T02:33:29.134Z,0.60
2024-03-16T02:37:34.069Z,0.60
2024-03-16T02:41:38.117Z,0.90
2024-03-16T02:45:41.662Z,1.13
2024-03-16T02:49:45.201Z,0.90
2024-03-16T02:53:49.062Z,0.93
2024-03-16T02:57:52.598Z,0.80
2024-03-16T03:01:58.762Z,0.70
2024-03-16T03:06:04.472Z,0.77
2024-03-16T03:10:09.942Z,0.90
2024-03-16T03:14:16.418Z,0.97
2024-03-16T03:18:20.719Z,0.93
2024-03-16T03:22:24.421Z,1.00
2024-03-16T03:26:30.577Z,1.63
2024-03-16T03:30:36.321Z,1.60
2024-03-16T03:34:39.713Z,1.50
2024-03-16T03:38:44.456Z,1.60
2024-03-16T03:42:49.637Z,1.90
2024-03-16T03:46:53.524Z,2.33
2024-03-16T03:50:56.925Z,2.17
2024-03-16T03:55:01.729Z,2.37
2024-03-16T03:59:05.351Z,2.10
2024-03-16T04:03:08.910Z,2.20
2024-03-16T04:07:12.373Z,2.40
2024-03-16T04:11:16.245Z,2.87
2024-03-16T04:15:19.703Z,3.20
2024-03-16T04:19:23.530Z,3.30
2024-03-16T04:23:26.995Z,2.90
2024-03-16T04:27:30.655Z,2.83
2024-03-16T04:31:34.087Z,3.33
2024-03-16T04:35:37.667Z,3.40
2024-03-16T04:39:44.944Z,3.10
2024-03-16T04:43:49.419Z,3.37
2024-03-16T04:47:52.771Z,3.17
2024-03-16T04:51:56.628Z,3.07
2024-03-16T04:56:00.095Z,2.90
2024-03-16T05:00:04.064Z,3.37
2024-03-16T05:04:07.803Z,3.10
2024-03-16T05:08:11.463Z,2.80
2024-03-16T05:12:15.079Z,2.87
2024-03-16T05:16:18.585Z,2.67
2024-03-16T05:20:22.943Z,3.07
2024-03-16T05:24:26.648Z,3.00
2024-03-16T05:28:30.196Z,3.00
2024-03-16T05:32:33.748Z,2.60
2024-03-16T05:36:38.287Z,3.47
2024-03-16T05:40:43.082Z,2.73
2024-03-16T05:44:46.728Z,3.10
2024-03-16T05:48:50.234Z,3.10
2024-03-16T05:52:54.022Z,3.40
2024-03-16T05:56:57.556Z,2.80
2024-03-16T06:01:02.624Z,2.80
2024-03-16T06:05:06.282Z,2.60
2024-03-16T06:09:10.087Z,2.43
2024-03-16T06:13:14.716Z,2.20
2024-03-16T06:17:18.187Z,2.50
2024-03-16T06:21:21.823Z,2.33
2024-03-16T06:25:25.752Z,1.80
2024-03-16T06:29:32.163Z,1.67
2024-03-16T06:33:35.569Z,2.00
2024-03-16T06:37:39.349Z,2.07
2024-03-16T06:41:42.884Z,1.60
2024-03-16T06:45:46.591Z,1.67
2024-03-16T06:49:51.233Z,1.13
2024-03-16T06:53:54.932Z,1.67
2024-03-16T06:57:58.404Z,1.30
2024-03-16T07:02:02.172Z,1.30
2024-03-16T07:06:07.818Z,1.30
2024-03-16T07:10:11.498Z,1.13
2024-03-16T07:14:15.231Z,1.07
2024-03-16T07:18:18.826Z,1.00
2024-03-16T07:22:22.673Z,0.80
2024-03-16T07:26:26.323Z,0.70
2024-03-16T07:30:29.879Z,0.63
2024-03-16T07:34:34.930Z,0.43
2024-03-16T07:38:38.562Z,0.30
2024-03-16T07:42:44.146Z,0.30
2024-03-16T07:46:49.649Z,0.20
2024-03-16T07:50:53.222Z,0.20
2024-03-16T07:54:57.082Z,0.30
2024-03-16T07:59:00.642Z,0.30
2024-03-16T08:03:04.422Z,0.20
2024-03-16T08:07:08.355Z,0.10
2024-03-16T08:11:11.880Z,0.20
2024-03-16T08:15:15.599Z,0.20
2024-03-16T08:19:19.923Z,0.10
2024-03-16T08:23:23.636Z,0.20
2024-03-16T08:27:32.011Z,0.10
2024-03-16T08:31:38.165Z,0.10
2024-03-16T08:35:42.114Z,0.10
2024-03-16T08:39:46.159Z,0.10
2024-03-16T08:43:49.797Z,0.10
2024-03-16T08:47:53.375Z,0.17
2024-03-16T08:51:58.795Z,0.20
2024-03-16T08:56:05.427Z,0.20
2024-03-16T09:00:13.651Z,0.20
2024-03-16T09:04:17.365Z,0.20
2024-03-16T09:08:20.912Z,0.23
2024-03-16T09:12:24.950Z,0.20
2024-03-16T09:16:28.449Z,0.20
2024-03-16T09:20:32.380Z,0.20
2024-03-16T09:24:36.560Z,0.30
2024-03-16T09:28:40.251Z,0.30
2024-03-16T09:32:44.014Z,0.20
2024-03-16T09:36:47.824Z,0.20
2024-03-16T09:40:57.322Z,0.27
